Time;durP1;ratioP1;P1;durP2;ratioP2;P2;SDS_P1;SDS_P2;PMS_P1;PMS_P2;Temp;Humidity;BMP_temperature;BMP_pressure;BME280_temperature;BME280_humidity;BME280_pressure;Samples;Min_cycle;Max_cycle;Signal;HPM_P1;HPM_P2
2021/10/10 00:00:38;;;;;;;3.97;2.58;;;8.20;57.60;;;;;;5054629;28;20027;-85
2021/10/10 00:03:04;;;;;;;5.13;2.60;;;8.30;57.80;;;;;;5053662;28;20021;-85
2021/10/10 00:05:29;;;;;;;9.27;3.95;;;8.20;57.70;;;;;;5054016;28;20444;-86
2021/10/10 00:07:55;;;;;;;6.20;3.00;;;8.20;58.10;;;;;;5054734;28;20410;-85
2021/10/10 00:10:21;;;;;;;6.63;3.33;;;8.30;57.60;;;;;;5053725;28;20029;-85
2021/10/10 00:12:46;;;;;;;5.65;3.55;;;8.20;58.20;;;;;;5054606;28;20052;-85
2021/10/10 00:15:13;;;;;;;6.75;2.97;;;8.20;57.90;;;;;;5053893;28;20021;-85
2021/10/10 00:17:39;;;;;;;4.68;2.95;;;8.20;57.70;;;;;;5054449;28;20017;-85
2021/10/10 00:20:06;;;;;;;3.78;2.35;;;8.20;57.80;;;;;;5054423;28;20024;-86
2021/10/10 00:22:33;;;;;;;4.80;2.35;;;8.20;57.60;;;;;;5054176;28;20025;-85
2021/10/10 00:24:58;;;;;;;6.85;3.78;;;8.20;57.80;;;;;;5053003;28;20021;-85
2021/10/10 00:27:24;;;;;;;5.15;2.97;;;8.20;57.80;;;;;;5054845;28;20104;-85
2021/10/10 00:29:50;;;;;;;4.20;2.35;;;8.20;57.50;;;;;;5054248;28;20024;-85
2021/10/10 00:32:17;;;;;;;4.53;3.38;;;8.20;57.60;;;;;;5054093;28;20078;-85
2021/10/10 00:34:43;;;;;;;4.07;2.65;;;8.20;57.80;;;;;;5054235;28;20048;-85
2021/10/10 00:37:09;;;;;;;4.68;2.42;;;8.20;57.80;;;;;;5053990;28;20194;-85
2021/10/10 00:39:34;;;;;;;5.22;2.83;;;8.10;57.80;;;;;;5054166;28;20479;-85
2021/10/10 00:42:00;;;;;;;2.50;2.03;;;8.10;57.90;;;;;;5054449;28;20067;-85
2021/10/10 00:44:26;;;;;;;4.47;2.92;;;8.10;58.00;;;;;;5054159;28;20052;-85
2021/10/10 00:46:53;;;;;;;2.85;2.58;;;8.10;58.00;;;;;;5053845;28;20387;-85
2021/10/10 00:49:18;;;;;;;4.35;2.75;;;8.10;58.00;;;;;;5054307;28;20037;-85
2021/10/10 00:51:45;;;;;;;5.30;2.72;;;8.10;58.10;;;;;;5053797;28;20043;-85
2021/10/10 00:54:13;;;;;;;4.07;2.60;;;8.10;58.20;;;;;;5053748;28;20021;-85
2021/10/10 00:56:41;;;;;;;8.43;2.97;;;8.10;58.10;;;;;;5054251;28;20017;-85
2021/10/10 00:59:09;;;;;;;4.25;2.60;;;8.10;58.20;;;;;;5054264;28;20021;-85
2021/10/10 01:01:35;;;;;;;3.90;2.25;;;8.10;58.00;;;;;;5054137;28;20075;-85
2021/10/10 01:04:02;;;;;;;5.20;2.90;;;8.10;57.80;;;;;;5053630;28;20017;-85
2021/10/10 01:06:28;;;;;;;4.32;1.95;;;8.10;57.90;;;;;;5053835;28;20025;-84
2021/10/10 01:08:53;;;;;;;4.15;2.38;;;8.10;57.80;;;;;;5054475;28;20355;-85
2021/10/10 01:11:19;;;;;;;3.53;2.65;;;8.10;57.90;;;;;;5053729;28;20036;-85
2021/10/10 01:13:45;;;;;;;3.95;2.17;;;8.10;58.00;;;;;;5052802;28;20021;-85
2021/10/10 01:16:11;;;;;;;3.45;2.60;;;8.10;58.10;;;;;;5053790;28;20024;-85
2021/10/10 01:18:37;;;;;;;7.25;2.70;;;8.10;57.90;;;;;;5053768;28;20028;-85
2021/10/10 01:21:02;;;;;;;4.85;2.78;;;8.00;57.70;;;;;;5053749;28;20047;-85
2021/10/10 01:23:28;;;;;;;10.63;2.83;;;8.00;57.60;;;;;;5053206;28;20021;-85
2021/10/10 01:25:54;;;;;;;6.57;3.25;;;8.00;57.40;;;;;;5052402;28;20016;-85
2021/10/10 01:28:21;;;;;;;4.18;3.20;;;8.00;57.40;;;;;;5052088;28;20023;-85
2021/10/10 01:30:46;;;;;;;7.32;3.78;;;7.90;57.20;;;;;;5053499;28;20032;-85
2021/10/10 01:33:14;;;;;;;4.85;3.20;;;7.90;57.30;;;;;;5052332;28;20017;-84
2021/10/10 01:35:40;;;;;;;4.97;2.90;;;7.90;57.40;;;;;;5053310;28;20052;-85
2021/10/10 01:38:07;;;;;;;6.72;3.13;;;7.90;57.50;;;;;;5053881;28;20028;-85
2021/10/10 01:40:34;;;;;;;3.63;2.75;;;7.80;57.60;;;;;;5053284;28;20094;-85
2021/10/10 01:43:04;;;;;;;4.70;2.70;;;7.80;58.10;;;;;;5053299;28;20036;-85
2021/10/10 01:45:30;;;;;;;4.72;2.33;;;7.80;57.70;;;;;;5053290;28;20028;-85
2021/10/10 01:47:55;;;;;;;4.07;2.90;;;7.80;57.80;;;;;;5053738;28;20017;-85
2021/10/10 01:50:21;;;;;;;3.85;2.25;;;7.70;57.90;;;;;;5053022;28;20041;-85
2021/10/10 01:52:50;;;;;;;5.00;3.20;;;7.70;57.80;;;;;;5053715;28;20087;-85
2021/10/10 01:55:16;;;;;;;3.65;2.28;;;7.70;57.80;;;;;;5053510;28;20017;-85
2021/10/10 01:57:42;;;;;;;4.03;2.30;;;7.70;57.90;;;;;;5053129;28;20025;-85
2021/10/10 02:00:09;;;;;;;4.43;2.63;;;7.70;57.90;;;;;;5053282;28;20057;-85
2021/10/10 02:02:35;;;;;;;4.47;3.10;;;7.70;58.00;;;;;;5051816;28;20029;-85
2021/10/10 02:05:01;;;;;;;4.72;2.63;;;7.70;58.00;;;;;;5053219;28;20021;-85
2021/10/10 02:07:27;;;;;;;4.38;2.70;;;7.70;58.00;;;;;;5057382;28;20051;-85
2021/10/10 02:09:52;;;;;;;10.15;3.05;;;7.70;58.00;;;;;;5057300;28;20064;-85
2021/10/10 02:12:18;;;;;;;6.45;2.72;;;7.70;57.90;;;;;;5055688;28;20087;-85
2021/10/10 02:14:43;;;;;;;3.72;2.40;;;7.70;57.90;;;;;;5056624;28;20074;-85
2021/10/10 02:17:09;;;;;;;2.92;2.33;;;7.60;57.90;;;;;;5057130;28;20025;-85
2021/10/10 02:19:35;;;;;;;7.88;3.65;;;7.60;58.00;;;;;;5055591;28;20017;-85
2021/10/10 02:22:00;;;;;;;4.43;3.42;;;7.50;57.80;;;;;;5057066;28;20029;-85
2021/10/10 02:24:26;;;;;;;3.45;2.20;;;7.50;57.80;;;;;;5057005;28;20032;-85
2021/10/10 02:26:52;;;;;;;6.47;2.88;;;7.50;57.80;;;;;;5056391;28;20025;-85
2021/10/10 02:29:18;;;;;;;5.07;2.45;;;7.50;57.90;;;;;;5056929;28;20478;-85
2021/10/10 02:31:43;;;;;;;5.15;2.88;;;7.40;57.90;;;;;;5056183;28;20029;-85
2021/10/10 02:34:10;;;;;;;5.90;2.88;;;7.40;58.00;;;;;;5056567;28;20025;-85
2021/10/10 02:36:36;;;;;;;5.65;2.97;;;7.30;57.90;;;;;;5055236;28;20483;-85
2021/10/10 02:39:03;;;;;;;5.97;3.25;;;7.30;57.90;;;;;;5055242;28;20032;-85
2021/10/10 02:41:29;;;;;;;5.03;2.75;;;7.30;57.90;;;;;;5056467;28;20020;-85
2021/10/10 02:43:54;;;;;;;7.18;2.80;;;7.20;58.20;;;;;;5056350;28;20028;-85
2021/10/10 02:46:20;;;;;;;4.25;2.70;;;7.20;58.20;;;;;;5056395;28;20039;-85
2021/10/10 02:48:46;;;;;;;4.40;2.78;;;7.20;58.20;;;;;;5056078;28;20330;-85
2021/10/10 02:51:11;;;;;;;5.55;2.95;;;7.20;58.50;;;;;;5056198;28;20391;-85
2021/10/10 02:53:37;;;;;;;8.07;3.10;;;7.10;58.60;;;;;;5056462;28;20411;-85
2021/10/10 02:56:03;;;;;;;9.32;3.70;;;7.10;58.80;;;;;;5054581;28;20100;-85
2021/10/10 02:58:32;;;;;;;5.32;3.00;;;7.10;58.80;;;;;;5056172;28;20039;-85
2021/10/10 03:00:58;;;;;;;5.03;2.95;;;7.10;58.80;;;;;;5055352;28;20025;-85
2021/10/10 03:03:24;;;;;;;4.10;2.53;;;7.10;59.00;;;;;;5056036;28;20021;-85
2021/10/10 03:05:49;;;;;;;5.57;2.97;;;7.10;59.50;;;;;;5054716;28;20067;-85
2021/10/10 03:08:15;;;;;;;6.95;3.33;;;7.00;59.10;;;;;;5055642;28;20032;-85
2021/10/10 03:10:41;;;;;;;6.30;3.45;;;7.00;59.20;;;;;;5055479;28;20025;-84
2021/10/10 03:13:07;;;;;;;6.20;3.15;;;7.00;59.20;;;;;;5056119;28;20104;-85
2021/10/10 03:15:36;;;;;;;7.28;3.20;;;7.00;59.40;;;;;;5055788;28;20043;-85
2021/10/10 03:18:02;;;;;;;6.03;3.45;;;7.00;59.70;;;;;;5054863;28;20021;-85
2021/10/10 03:20:28;;;;;;;5.07;3.60;;;6.90;59.90;;;;;;5055439;28;20028;-85
2021/10/10 03:22:54;;;;;;;4.45;2.97;;;6.90;60.10;;;;;;5055384;28;20024;-85
2021/10/10 03:25:20;;;;;;;5.97;3.42;;;6.80;60.00;;;;;;5054398;28;20025;-85
2021/10/10 03:27:45;;;;;;;4.03;2.75;;;6.80;60.00;;;;;;5054071;28;20021;-85
2021/10/10 03:30:11;;;;;;;6.40;3.40;;;6.80;59.80;;;;;;5055555;28;20032;-84
2021/10/10 03:32:37;;;;;;;6.75;3.33;;;6.80;60.10;;;;;;5054046;28;20349;-85
2021/10/10 03:35:04;;;;;;;4.28;2.50;;;6.70;60.30;;;;;;5055752;28;20440;-85
2021/10/10 03:37:29;;;;;;;3.45;2.38;;;6.70;60.10;;;;;;5054111;28;20025;-84
2021/10/10 03:39:56;;;;;;;5.20;2.67;;;6.70;60.20;;;;;;5054089;28;20021;-85
2021/10/10 03:42:23;;;;;;;3.97;2.45;;;6.60;60.40;;;;;;5055236;28;20037;-85
2021/10/10 03:44:49;;;;;;;11.30;2.78;;;6.60;60.40;;;;;;5053978;28;20027;-85
2021/10/10 03:47:15;;;;;;;5.30;2.63;;;6.50;60.50;;;;;;5055225;28;20025;-85
2021/10/10 03:49:42;;;;;;;4.78;3.30;;;6.50;60.70;;;;;;5054970;28;20077;-85
2021/10/10 03:52:09;;;;;;;4.60;2.55;;;6.50;60.90;;;;;;5053719;28;20087;-85
2021/10/10 03:57:23;;;;;;;6.63;2.72;;;6.40;61.00;;;;;;5055346;28;20079;-84
2021/10/10 03:59:55;;;;;;;3.00;2.55;;;6.40;61.00;;;;;;5054942;28;20444;-85
2021/10/10 04:02:21;;;;;;;7.40;2.67;;;6.40;60.90;;;;;;5054901;28;20025;-85
2021/10/10 04:04:47;;;;;;;7.32;3.10;;;6.40;60.90;;;;;;5055020;28;20025;-85
2021/10/10 04:07:15;;;;;;;8.82;3.55;;;6.40;61.70;;;;;;5054630;28;20025;-85
2021/10/10 04:09:42;;;;;;;4.05;2.72;;;6.40;61.70;;;;;;5054511;28;20017;-85
2021/10/10 04:12:08;;;;;;;3.97;2.47;;;6.40;61.40;;;;;;5054554;28;20021;-85
2021/10/10 04:14:33;;;;;;;3.63;2.42;;;6.40;62.00;;;;;;5054432;28;20017;-85
2021/10/10 04:16:59;;;;;;;8.60;3.17;;;6.40;61.30;;;;;;5054414;28;20021;-85
2021/10/10 04:19:25;;;;;;;4.25;2.25;;;6.40;61.40;;;;;;5054510;28;20025;-85
2021/10/10 04:21:50;;;;;;;3.53;2.13;;;6.40;61.80;;;;;;5054835;28;20031;-84
2021/10/10 04:24:16;;;;;;;5.40;3.03;;;6.40;61.70;;;;;;5053252;28;20075;-85
2021/10/10 04:26:41;;;;;;;6.72;3.40;;;6.50;61.50;;;;;;5052782;28;20028;-85
2021/10/10 04:29:07;;;;;;;5.07;3.20;;;6.50;61.70;;;;;;5052292;28;20027;-85
2021/10/10 04:31:33;;;;;;;3.75;2.88;;;6.50;61.30;;;;;;5054268;28;20036;-85
2021/10/10 04:33:58;;;;;;;4.68;2.25;;;6.60;61.30;;;;;;5054241;28;20017;-85
2021/10/10 04:36:24;;;;;;;6.47;2.38;;;6.60;61.30;;;;;;5053540;28;20016;-85
2021/10/10 04:38:50;;;;;;;4.40;3.08;;;6.60;61.40;;;;;;5054512;28;20360;-85
2021/10/10 04:41:15;;;;;;;7.03;3.15;;;6.60;61.40;;;;;;5054408;28;20025;-85
2021/10/10 04:43:41;;;;;;;4.03;2.95;;;6.60;61.30;;;;;;5054122;28;20031;-85
2021/10/10 04:46:07;;;;;;;4.13;2.58;;;6.70;61.40;;;;;;5052920;28;20025;-85
2021/10/10 04:48:32;;;;;;;3.83;2.72;;;6.70;61.50;;;;;;5054041;28;20028;-85
2021/10/10 04:50:58;;;;;;;4.85;3.42;;;6.70;61.70;;;;;;5053386;28;20396;-85
2021/10/10 04:53:24;;;;;;;4.68;2.33;;;6.80;61.60;;;;;;5054307;28;20347;-85
2021/10/10 04:55:49;;;;;;;3.05;2.55;;;6.80;61.40;;;;;;5053679;28;20025;-84
2021/10/10 04:58:15;;;;;;;5.03;3.22;;;6.90;61.60;;;;;;5053935;28;20025;-85
2021/10/10 05:00:41;;;;;;;3.90;2.72;;;7.00;61.40;;;;;;5052678;28;20017;-85
2021/10/10 05:03:07;;;;;;;7.90;3.45;;;7.00;61.20;;;;;;5053905;28;20433;-85
2021/10/10 05:05:33;;;;;;;5.30;3.08;;;7.10;61.30;;;;;;5054141;28;20017;-85
2021/10/10 05:07:59;;;;;;;2.97;2.67;;;7.20;61.10;;;;;;5053830;28;20028;-85
2021/10/10 05:10:24;;;;;;;4.50;2.78;;;7.30;61.10;;;;;;5053813;28;20142;-85
2021/10/10 05:12:50;;;;;;;5.57;3.58;;;7.40;61.00;;;;;;5053702;28;20039;-85
2021/10/10 05:15:16;;;;;;;6.80;3.35;;;7.40;60.90;;;;;;5053554;28;20017;-85
2021/10/10 05:17:41;;;;;;;4.00;2.50;;;7.50;60.90;;;;;;5053787;28;20021;-84
2021/10/10 05:20:07;;;;;;;5.70;2.85;;;7.60;60.80;;;;;;5053999;28;20056;-85
2021/10/10 05:22:33;;;;;;;3.20;2.38;;;7.70;60.70;;;;;;5052484;28;20025;-85
2021/10/10 05:25:00;;;;;;;5.40;3.30;;;7.80;60.70;;;;;;5053458;28;20021;-85
2021/10/10 05:27:26;;;;;;;7.30;3.70;;;7.80;60.70;;;;;;5053634;28;20043;-85
2021/10/10 05:29:51;;;;;;;7.22;3.65;;;7.80;60.70;;;;;;5052312;28;20029;-85
2021/10/10 05:32:17;;;;;;;9.93;3.53;;;7.90;60.70;;;;;;5053374;28;20088;-84
2021/10/10 05:34:43;;;;;;;4.07;2.55;;;8.00;60.90;;;;;;5052210;28;20447;-86
2021/10/10 05:37:08;;;;;;;4.05;3.42;;;8.10;60.70;;;;;;5052802;28;20028;-85
2021/10/10 05:39:35;;;;;;;4.65;3.28;;;8.10;60.50;;;;;;5053536;28;20070;-86
2021/10/10 05:42:01;;;;;;;5.10;3.20;;;8.20;60.40;;;;;;5056034;28;20363;-86
2021/10/10 05:44:27;;;;;;;4.82;2.92;;;8.30;60.20;;;;;;5056856;28;20120;-87
2021/10/10 05:46:52;;;;;;;6.50;3.72;;;8.40;60.10;;;;;;5055986;28;20107;-87
2021/10/10 05:49:18;;;;;;;7.47;3.20;;;8.50;60.00;;;;;;5055719;28;20041;-86
2021/10/10 05:51:45;;;;;;;5.45;3.00;;;8.50;59.90;;;;;;5057098;28;20029;-86
2021/10/10 05:54:14;;;;;;;4.20;2.60;;;8.60;59.80;;;;;;5056719;28;20042;-86
2021/10/10 05:56:40;;;;;;;4.45;3.00;;;8.70;59.60;;;;;;5055711;28;20025;-88
2021/10/10 05:59:10;;;;;;;5.97;3.55;;;8.80;59.40;;;;;;5056580;28;20444;-86
2021/10/10 06:01:36;;;;;;;4.07;2.85;;;8.80;59.30;;;;;;5055257;28;20032;-86
2021/10/10 06:04:05;;;;;;;3.67;2.67;;;8.90;58.90;;;;;;5055689;28;20028;-86
2021/10/10 06:06:31;;;;;;;6.78;3.85;;;8.90;58.80;;;;;;5056844;28;20032;-86
2021/10/10 06:08:56;;;;;;;5.60;3.38;;;9.10;59.10;;;;;;5056965;28;20364;-86
2021/10/10 06:11:22;;;;;;;5.55;2.83;;;9.30;59.00;;;;;;5055729;28;20037;-87
2021/10/10 06:13:49;;;;;;;8.68;3.25;;;9.50;58.90;;;;;;5056708;28;20028;-86
2021/10/10 06:16:15;;;;;;;5.38;3.38;;;9.70;58.50;;;;;;5056750;28;20064;-87
2021/10/10 06:18:41;;;;;;;5.13;3.42;;;9.90;58.40;;;;;;5057241;28;20083;-86
2021/10/10 06:21:07;;;;;;;7.93;3.40;;;10.10;58.10;;;;;;5056681;28;20029;-86
2021/10/10 06:23:33;;;;;;;5.03;3.33;;;10.30;57.70;;;;;;5056716;28;20104;-86
2021/10/10 06:25:59;;;;;;;4.70;3.40;;;10.40;57.20;;;;;;5055526;28;20094;-86
2021/10/10 06:28:24;;;;;;;5.20;3.55;;;10.50;57.10;;;;;;5056921;28;20032;-86
2021/10/10 06:30:50;;;;;;;4.97;3.70;;;10.60;57.00;;;;;;5055119;28;20017;-86
2021/10/10 06:33:16;;;;;;;6.65;3.58;;;10.70;56.80;;;;;;5057085;28;20020;-86
2021/10/10 06:35:42;;;;;;;7.78;4.30;;;10.80;56.40;;;;;;5056805;28;20368;-86
2021/10/10 06:38:07;;;;;;;4.30;3.13;;;10.80;55.80;;;;;;5056447;28;20056;-87
2021/10/10 06:40:33;;;;;;;5.97;3.80;;;10.90;55.80;;;;;;5056233;28;20032;-86
2021/10/10 06:42:59;;;;;;;5.80;3.53;;;10.80;55.90;;;;;;5056592;28;20025;-86
2021/10/10 06:45:25;;;;;;;5.85;3.50;;;10.80;56.00;;;;;;5056324;28;20020;-86
2021/10/10 06:47:50;;;;;;;5.47;3.47;;;10.90;55.80;;;;;;5055028;28;20357;-86
2021/10/10 06:50:16;;;;;;;4.60;3.75;;;10.90;55.80;;;;;;5056461;28;20048;-86
2021/10/10 06:52:42;;;;;;;6.60;3.65;;;11.00;55.90;;;;;;5054971;28;20039;-86
2021/10/10 06:55:08;;;;;;;4.88;3.08;;;11.00;55.80;;;;;;5054790;28;20023;-86
2021/10/10 06:57:33;;;;;;;4.03;3.20;;;11.10;55.80;;;;;;5054620;28;20021;-87
2021/10/10 07:00:00;;;;;;;6.05;3.20;;;11.20;55.60;;;;;;5054681;28;20083;-87
2021/10/10 07:02:28;;;;;;;6.05;3.50;;;11.20;55.30;;;;;;5054737;28;20036;-86
2021/10/10 07:04:54;;;;;;;4.63;3.03;;;11.20;55.20;;;;;;5055202;28;20432;-86
2021/10/10 07:07:20;;;;;;;6.75;3.78;;;11.00;55.60;;;;;;5055957;28;20021;-86
2021/10/10 07:09:46;;;;;;;4.90;3.47;;;10.90;55.10;;;;;;5055715;28;20028;-86
2021/10/10 07:12:12;;;;;;;8.65;3.88;;;10.80;55.30;;;;;;5056279;28;20033;-86
2021/10/10 07:14:38;;;;;;;4.75;3.42;;;10.60;55.60;;;;;;5055466;28;20041;-86
2021/10/10 07:17:03;;;;;;;5.18;2.95;;;10.50;55.90;;;;;;5055564;28;20028;-87
2021/10/10 07:19:44;;;;;;;7.18;3.83;;;10.40;56.30;;;;;;5055678;28;20436;-86
2021/10/10 07:22:27;;;;;;;5.68;3.95;;;10.30;56.40;;;;;;5055838;28;20517;-86
2021/10/10 07:25:28;;;;;;;4.07;2.83;;;10.30;56.70;;;;;;5054431;28;20032;-86
2021/10/10 07:27:47;;;;;;;6.97;3.70;;;10.20;56.60;;;;;;5054429;28;20025;-85
2021/10/10 07:30:14;;;;;;;5.20;3.10;;;10.20;56.60;;;;;;5055299;28;20048;-86
2021/10/10 07:32:41;;;;;;;5.18;3.80;;;10.20;56.80;;;;;;5055062;28;20067;-86
2021/10/10 07:35:09;;;;;;;7.32;3.13;;;10.30;56.70;;;;;;5054965;28;20444;-86
2021/10/10 07:37:35;;;;;;;4.43;3.58;;;10.30;56.70;;;;;;5053640;28;20469;-86
2021/10/10 07:40:02;;;;;;;5.50;3.40;;;10.40;56.70;;;;;;5055162;28;20108;-86
2021/10/10 07:42:29;;;;;;;4.43;3.10;;;10.60;56.60;;;;;;5053746;28;20032;-86
2021/10/10 07:44:57;;;;;;;5.53;3.22;;;10.70;56.30;;;;;;5053603;28;20074;-86
2021/10/10 07:49:49;;;;;;;5.88;3.40;;;10.70;55.90;;;;;;5054446;28;20537;-87
2021/10/10 07:52:16;;;;;;;7.88;2.97;;;10.80;56.00;;;;;;5054467;28;20372;-86
2021/10/10 07:54:42;;;;;;;5.07;3.28;;;10.80;55.80;;;;;;5054729;28;20036;-86
2021/10/10 07:57:08;;;;;;;5.53;3.03;;;10.80;55.80;;;;;;5055049;28;20025;-86
2021/10/10 07:59:34;;;;;;;4.72;2.85;;;10.80;55.70;;;;;;5053467;28;20027;-86
2021/10/10 08:02:00;;;;;;;5.30;3.08;;;10.90;55.70;;;;;;5054821;28;20016;-86
2021/10/10 08:04:26;;;;;;;4.20;3.05;;;11.00;55.60;;;;;;5054378;28;20017;-86
2021/10/10 08:06:52;;;;;;;4.28;3.15;;;11.10;55.50;;;;;;5054628;28;20013;-86
2021/10/10 08:09:18;;;;;;;4.85;3.45;;;11.20;55.10;;;;;;5054524;28;20021;-86
2021/10/10 08:11:44;;;;;;;5.57;3.40;;;11.30;54.70;;;;;;5053193;28;20090;-86
2021/10/10 08:14:11;;;;;;;8.27;3.75;;;11.40;54.20;;;;;;5054804;28;20017;-86
2021/10/10 08:16:38;;;;;;;5.68;3.85;;;11.50;53.80;;;;;;5054635;28;20017;-86
2021/10/10 08:19:04;;;;;;;10.60;4.28;;;11.60;53.70;;;;;;5053019;28;20107;-86
2021/10/10 08:21:31;;;;;;;4.88;3.13;;;11.70;53.50;;;;;;5054391;28;20108;-86
2021/10/10 08:23:57;;;;;;;4.72;3.15;;;11.80;53.50;;;;;;5054318;28;20074;-86
2021/10/10 08:26:23;;;;;;;5.20;3.03;;;11.90;53.50;;;;;;5054406;28;20044;-86
2021/10/10 08:28:48;;;;;;;7.63;3.58;;;12.00;53.30;;;;;;5054411;28;20021;-86
2021/10/10 08:31:14;;;;;;;5.45;4.47;;;12.00;53.10;;;;;;5052847;28;20040;-86
2021/10/10 08:33:40;;;;;;;6.15;3.83;;;12.10;52.40;;;;;;5053006;28;20412;-86
2021/10/10 08:36:08;;;;;;;5.10;3.83;;;12.10;52.10;;;;;;5052908;28;20029;-86
2021/10/10 08:38:37;;;;;;;5.45;3.50;;;12.10;52.30;;;;;;5052764;28;20480;-86
2021/10/10 08:41:03;;;;;;;6.78;4.32;;;12.20;52.00;;;;;;5054042;28;20106;-86
2021/10/10 08:43:31;;;;;;;5.28;3.15;;;12.30;51.80;;;;;;5052787;28;20452;-86
2021/10/10 08:46:04;;;;;;;9.60;5.22;;;12.30;51.60;;;;;;5054387;28;20025;-86
2021/10/10 08:48:30;;;;;;;4.80;3.75;;;12.40;51.30;;;;;;5052512;28;20017;-86
2021/10/10 08:50:57;;;;;;;4.72;3.88;;;12.50;52.00;;;;;;5052733;28;20052;-86
2021/10/10 08:53:23;;;;;;;4.47;3.50;;;12.50;51.30;;;;;;5052721;28;20029;-86
2021/10/10 08:55:50;;;;;;;5.75;3.70;;;12.60;51.30;;;;;;5052601;28;20024;-86
2021/10/10 08:58:18;;;;;;;7.10;4.63;;;12.60;50.80;;;;;;5052575;28;20021;-86
2021/10/10 09:00:48;;;;;;;7.72;4.60;;;12.70;50.90;;;;;;5053809;28;20025;-86
2021/10/10 09:03:14;;;;;;;5.70;4.13;;;12.60;50.60;;;;;;5053899;28;20021;-86
2021/10/10 09:05:40;;;;;;;8.75;4.88;;;12.60;50.60;;;;;;5052718;28;20024;-86
2021/10/10 09:08:05;;;;;;;6.07;3.85;;;12.60;50.40;;;;;;5052544;28;20444;-86
2021/10/10 09:10:32;;;;;;;11.35;3.95;;;12.60;50.20;;;;;;5053915;28;20029;-86
2021/10/10 09:13:07;;;;;;;6.10;3.47;;;12.60;50.10;;;;;;5053426;28;20036;-86
2021/10/10 09:15:34;;;;;;;5.95;3.97;;;12.70;50.10;;;;;;5052853;28;20467;-86
2021/10/10 09:18:02;;;;;;;5.07;3.70;;;12.80;50.10;;;;;;5053892;28;20028;-86
2021/10/10 09:20:47;;;;;;;5.80;3.83;;;12.80;50.00;;;;;;5052902;28;20352;-86
2021/10/10 09:23:16;;;;;;;3.95;2.85;;;12.90;49.80;;;;;;5053734;28;20024;-86
2021/10/10 09:25:56;;;;;;;5.50;3.72;;;13.00;49.70;;;;;;5053634;28;20770;-86
2021/10/10 09:28:24;;;;;;;7.65;4.13;;;13.10;49.30;;;;;;5053680;28;20025;-86
2021/10/10 09:30:59;;;;;;;6.13;3.70;;;13.10;49.00;;;;;;5052142;28;20056;-86
2021/10/10 09:33:43;;;;;;;5.00;3.40;;;13.20;48.80;;;;;;5052363;28;20112;-86
2021/10/10 09:36:18;;;;;;;6.90;3.60;;;13.30;48.70;;;;;;5052277;28;20103;-86
2021/10/10 09:39:11;;;;;;;6.68;3.60;;;13.40;48.60;;;;;;5053871;28;20062;-86
2021/10/10 09:44:30;;;;;;;6.47;3.85;;;13.50;47.70;;;;;;5053340;28;20025;-86
2021/10/10 09:47:00;;;;;;;8.57;4.70;;;13.60;47.40;;;;;;5052255;28;20352;-86
2021/10/10 09:49:28;;;;;;;4.60;3.58;;;13.60;47.50;;;;;;5053025;28;20118;-86
2021/10/10 09:51:56;;;;;;;7.25;3.85;;;13.50;47.40;;;;;;5052520;28;20371;-86
2021/10/10 09:54:22;;;;;;;5.30;3.90;;;13.50;47.50;;;;;;5053710;28;20021;-86
2021/10/10 09:57:08;;;;;;;6.07;3.97;;;13.40;47.60;;;;;;5053122;28;20013;-86
2021/10/10 09:59:34;;;;;;;4.88;2.83;;;13.40;47.80;;;;;;5051941;28;20070;-86
2021/10/10 10:02:00;;;;;;;4.90;3.63;;;13.40;47.90;;;;;;5053040;28;20028;-86
2021/10/10 10:04:26;;;;;;;4.60;3.58;;;13.40;47.80;;;;;;5053459;28;20032;-86
2021/10/10 10:06:53;;;;;;;4.15;3.28;;;13.30;47.80;;;;;;5053315;28;20033;-86
2021/10/10 10:09:19;;;;;;;4.97;3.58;;;13.30;47.70;;;;;;5051129;28;20028;-88
2021/10/10 10:11:47;;;;;;;7.10;4.40;;;13.30;47.80;;;;;;5053222;28;20325;-87
2021/10/10 10:14:18;;;;;;;6.72;4.03;;;13.30;47.60;;;;;;5052893;28;20119;-87
2021/10/10 10:16:49;;;;;;;4.85;3.47;;;13.20;47.50;;;;;;5053083;28;20032;-87
2021/10/10 10:19:17;;;;;;;5.05;3.97;;;13.20;48.20;;;;;;5051340;28;20021;-87
2021/10/10 10:21:47;;;;;;;3.65;3.03;;;13.20;47.60;;;;;;5051335;28;20032;-88
2021/10/10 10:24:14;;;;;;;3.42;3.00;;;13.20;48.00;;;;;;5052677;28;20028;-87
2021/10/10 10:26:42;;;;;;;7.40;3.20;;;13.30;47.90;;;;;;5053546;28;20029;-87
2021/10/10 10:29:14;;;;;;;4.55;3.05;;;13.40;48.00;;;;;;5056523;28;20033;-87
2021/10/10 10:31:44;;;;;;;5.95;3.30;;;13.50;47.90;;;;;;5054336;28;20364;-86
2021/10/10 10:34:29;;;;;;;10.18;3.60;;;13.60;48.00;;;;;;5056266;28;20025;-86
2021/10/10 10:37:06;;;;;;;3.53;2.80;;;13.70;48.40;;;;;;5050395;28;20468;-86
2021/10/10 10:39:37;;;;;;;6.07;2.90;;;13.80;47.80;;;;;;5037076;28;20116;-85
2021/10/10 10:42:05;;;;;;;5.50;3.78;;;13.90;47.70;;;;;;5052556;28;20102;-86
2021/10/10 10:44:45;;;;;;;5.82;3.20;;;14.00;47.40;;;;;;5086172;28;20028;-86
2021/10/10 10:47:36;;;;;;;3.50;3.08;;;14.10;47.00;;;;;;5055361;28;20470;-89
2021/10/10 10:50:08;;;;;;;6.85;3.42;;;14.10;46.60;;;;;;5051052;28;20053;-91
2021/10/10 10:52:36;;;;;;;5.03;3.42;;;14.20;46.90;;;;;;5052916;28;20044;-92
2021/10/10 10:55:23;;;;;;;3.47;2.70;;;14.20;46.70;;;;;;5052687;28;20051;-90
2021/10/10 10:57:55;;;;;;;4.32;3.30;;;14.30;46.80;;;;;;5050626;28;20052;-89
2021/10/10 11:00:33;;;;;;;4.35;2.92;;;14.40;46.80;;;;;;5053085;28;20020;-90
2021/10/10 11:03:08;;;;;;;4.38;2.70;;;14.50;46.80;;;;;;5050916;28;20017;-90
2021/10/10 11:05:52;;;;;;;5.75;3.55;;;14.60;46.70;;;;;;5038384;28;20393;-90
2021/10/10 11:08:31;;;;;;;5.00;3.45;;;14.80;46.70;;;;;;5070821;28;20028;-90
2021/10/10 11:11:09;;;;;;;6.40;3.13;;;14.80;46.00;;;;;;5058047;28;20108;-92
2021/10/10 11:13:35;;;;;;;4.53;3.47;;;14.90;46.30;;;;;;5089276;28;20035;-91
2021/10/10 11:16:14;;;;;;;6.32;4.05;;;15.00;46.20;;;;;;5054876;28;20388;-90
2021/10/10 11:18:49;;;;;;;6.20;3.97;;;15.10;45.80;;;;;;5051198;28;20044;-93
2021/10/10 11:21:25;;;;;;;6.30;4.32;;;15.20;45.50;;;;;;5057975;28;20352;-91
2021/10/10 11:24:06;;;;;;;8.00;4.05;;;15.20;45.30;;;;;;5058909;28;20027;-91
2021/10/10 11:26:40;;;;;;;5.25;3.92;;;15.30;45.20;;;;;;5072669;28;20453;-92
2021/10/10 11:29:26;;;;;;;3.28;2.92;;;15.30;45.10;;;;;;5061212;28;20029;-92
2021/10/10 11:31:57;;;;;;;8.57;4.25;;;15.30;44.80;;;;;;5058774;28;20041;-92
2021/10/10 11:34:29;;;;;;;4.28;3.47;;;15.30;44.90;;;;;;5059947;28;20065;-91
2021/10/10 11:36:56;;;;;;;4.50;3.05;;;15.40;45.00;;;;;;5060900;28;20028;-94
2021/10/10 11:39:34;;;;;;;4.63;3.15;;;15.50;44.90;;;;;;5048596;28;20044;-94
2021/10/10 11:42:12;;;;;;;4.72;3.28;;;15.60;44.50;;;;;;5057273;28;20043;-95
2021/10/10 11:44:41;;;;;;;4.38;2.95;;;15.60;44.50;;;;;;5058989;28;20025;-93
2021/10/10 11:47:29;;;;;;;3.92;2.95;;;15.60;44.60;;;;;;5043985;28;20029;-91
2021/10/10 11:50:05;;;;;;;3.55;2.83;;;15.80;44.70;;;;;;5059829;28;20044;-94
2021/10/10 11:52:36;;;;;;;4.32;2.85;;;15.90;44.70;;;;;;5061675;28;20041;-93
2021/10/10 11:55:33;;;;;;;3.60;3.00;;;16.00;44.60;;;;;;5059375;28;20028;-91
2021/10/10 11:58:03;;;;;;;5.00;3.10;;;16.10;44.10;;;;;;5069939;28;20028;-91
2021/10/10 12:00:36;;;;;;;6.45;3.20;;;16.20;43.90;;;;;;5077611;28;20031;-90
2021/10/10 12:03:19;;;;;;;3.17;2.83;;;16.30;43.90;;;;;;5080073;28;20118;-90
2021/10/10 12:05:46;;;;;;;4.40;3.28;;;16.50;43.80;;;;;;5071446;28;20033;-95
2021/10/10 12:08:37;;;;;;;4.95;3.53;;;16.60;43.30;;;;;;5046616;28;20023;-95
2021/10/10 12:11:09;;;;;;;6.53;3.47;;;16.80;43.30;;;;;;5053541;28;20028;-95
2021/10/10 12:14:13;;;;;;;5.65;3.35;;;16.90;43.00;;;;;;5042141;28;20068;-95
2021/10/10 12:16:52;;;;;;;5.05;3.40;;;17.10;42.10;;;;;;5060058;28;20025;-95
2021/10/10 12:19:17;;;;;;;4.50;3.45;;;17.20;42.20;;;;;;5059165;28;20033;-92
2021/10/10 12:21:44;;;;;;;3.58;3.28;;;17.10;42.60;;;;;;5043367;28;20033;-93
2021/10/10 12:24:18;;;;;;;4.18;3.17;;;17.20;42.10;;;;;;5044133;28;20032;-93
2021/10/10 12:26:55;;;;;;;5.15;3.60;;;17.30;42.20;;;;;;5058702;28;20044;-96
2021/10/10 12:29:44;;;;;;;4.55;3.25;;;17.30;41.80;;;;;;5039986;28;20032;-94
2021/10/10 12:32:24;;;;;;;3.97;3.00;;;17.30;41.40;;;;;;5049679;28;20036;-94
2021/10/10 12:35:17;;;;;;;4.82;3.75;;;17.20;41.70;;;;;;5082030;28;20029;-92
2021/10/10 12:37:56;;;;;;;5.95;3.38;;;17.10;41.00;;;;;;5055725;28;20475;-93
2021/10/10 12:40:30;;;;;;;5.68;4.22;;;16.90;41.50;;;;;;5091556;28;20029;-93
2021/10/10 12:42:58;;;;;;;5.97;4.20;;;16.70;41.00;;;;;;5063064;28;20048;-92
2021/10/10 12:46:00;;;;;;;4.40;3.33;;;16.60;41.40;;;;;;5061653;28;20475;-95
2021/10/10 12:48:27;;;;;;;5.90;3.55;;;16.50;41.70;;;;;;5076949;28;20032;-95
2021/10/10 12:51:32;;;;;;;4.85;3.78;;;16.40;42.00;;;;;;5056639;28;20053;-95
2021/10/10 13:20:59;;;;;;;3.88;2.97;;;15.60;44.10;;;;;;5034377;23;20050;-91
2021/10/10 13:23:52;;;;;;;3.80;2.72;;;15.50;44.50;;;;;;4996345;28;20037;-94
2021/10/10 13:26:38;;;;;;;3.85;2.65;;;15.40;44.80;;;;;;5024129;28;20025;-94
2021/10/10 13:32:18;;;;;;;6.45;2.85;;;15.20;45.20;;;;;;4995941;28;20084;-93
2021/10/10 13:37:48;;;;;;;3.55;2.50;;;14.90;45.50;;;;;;5011881;23;20054;-94
2021/10/10 13:40:37;;;;;;;4.78;2.90;;;14.80;45.70;;;;;;5007856;28;20049;-95